West End, New York
Current Conditions -  °F | °C
As of 6:55 PM on Wednesday 22 Oct 2014 (Local Time) from KNY0 Reporting Station
Overcast Overcast  
Wind Chill: 45°   Ceiling: 2600
Heat Index: 48°   Visibility: 10mi
Dew Point: 44°   Wind: 6mph
Humidity: 87%   Direction: 30°NNE
Pressure: 30.03"   Gusts: NA
Location:  42.4787°N, 75.0181°W
Report Text: KNY0 222255Z AUTO 03005KT 10SM OVC026 09/07 A3003 RMK AO2 T00870066
Loading
Personal Weather Stations






























Interactive Weather Map New forecast layout! Learn more

10-Day Weather Forecast

Advertisements
Track Severe Weather on mobile